createdAt,value
2023-05-05T00:01:05.444Z,7.38
2023-05-05T00:03:35.112Z,8.15
2023-05-05T00:06:02.801Z,7.47
2023-05-05T00:08:31.402Z,8.25
2023-05-05T00:10:58.602Z,9.50
2023-05-05T00:13:26.222Z,8.75
2023-05-05T00:15:54.005Z,7.93
2023-05-05T00:18:21.486Z,9.00
2023-05-05T00:20:48.739Z,8.68
2023-05-05T00:23:16.684Z,8.90
2023-05-05T00:25:43.915Z,9.80
2023-05-05T00:28:11.464Z,9.98
2023-05-05T00:30:39.197Z,8.95
2023-05-05T00:33:06.712Z,8.73
2023-05-05T00:35:53.688Z,10.27
2023-05-05T00:38:22.297Z,8.93
2023-05-05T00:40:51.661Z,8.68
2023-05-05T00:43:19.134Z,8.48
2023-05-05T00:45:46.549Z,8.07
2023-05-05T00:48:14.150Z,9.90
2023-05-05T00:50:43.021Z,9.80
2023-05-05T00:53:17.405Z,8.88
2023-05-05T00:55:44.637Z,8.75
2023-05-05T00:58:12.236Z,8.93
2023-05-05T01:00:39.451Z,9.60
2023-05-05T01:03:06.998Z,8.63
2023-05-05T01:06:01.173Z,8.50
2023-05-05T01:08:36.396Z,8.25
2023-05-05T01:11:10.189Z,8.23
2023-05-05T01:14:02.130Z,8.88
2023-05-05T01:16:30.743Z,8.30
2023-05-05T01:19:00.534Z,9.57
2023-05-05T01:22:03.037Z,8.60
2023-05-05T01:27:06.520Z,8.57
2023-05-05T01:29:33.963Z,8.68
2023-05-05T01:32:07.075Z,9.40
2023-05-05T01:34:36.136Z,8.55
2023-05-05T01:37:07.906Z,8.88
2023-05-05T01:39:36.586Z,8.30
2023-05-05T01:42:09.062Z,8.45
2023-05-05T01:44:36.836Z,8.98
2023-05-05T01:47:04.610Z,8.93
2023-05-05T01:49:33.446Z,8.45
2023-05-05T01:52:00.763Z,9.27
2023-05-05T01:54:28.683Z,8.30
2023-05-05T01:56:57.069Z,8.63
2023-05-05T01:59:25.287Z,8.68
2023-05-05T02:01:53.047Z,9.95
2023-05-05T02:04:20.632Z,9.15
2023-05-05T02:07:06.909Z,9.25
2023-05-05T02:09:34.635Z,9.55
2023-05-05T02:12:01.949Z,9.00
2023-05-05T02:14:30.310Z,9.00
2023-05-05T02:16:58.017Z,9.63
2023-05-05T02:19:45.690Z,8.43
2023-05-05T02:22:12.874Z,10.07
2023-05-05T02:24:40.364Z,8.98
2023-05-05T02:27:08.227Z,9.02
2023-05-05T02:29:37.723Z,9.43
2023-05-05T02:32:14.156Z,8.60
2023-05-05T02:34:42.762Z,9.45
2023-05-05T02:37:11.189Z,9.68
2023-05-05T02:39:45.275Z,9.52
2023-05-05T02:42:16.008Z,8.73
2023-05-05T02:44:45.006Z,8.40
2023-05-05T02:47:12.389Z,8.18
2023-05-05T02:49:39.983Z,8.88
2023-05-05T02:52:07.210Z,8.43
2023-05-05T02:54:34.661Z,8.70
2023-05-05T02:57:02.510Z,8.43
2023-05-05T02:59:44.875Z,9.52
2023-05-05T03:02:29.659Z,9.35
2023-05-05T03:05:09.522Z,9.43
2023-05-05T03:08:07.879Z,9.18
2023-05-05T03:10:39.678Z,8.70
2023-05-05T03:13:07.908Z,8.38
2023-05-05T03:15:41.706Z,8.73
2023-05-05T03:18:09.558Z,9.05
2023-05-05T03:20:38.842Z,8.88
2023-05-05T03:23:06.378Z,9.00
2023-05-05T03:25:42.855Z,8.93
2023-05-05T03:28:10.040Z,8.48
2023-05-05T03:30:37.774Z,8.77
2023-05-05T03:33:05.090Z,9.50
2023-05-05T03:35:32.673Z,8.20
2023-05-05T03:37:59.895Z,8.63
2023-05-05T03:40:40.390Z,9.05
2023-05-05T03:43:11.375Z,8.85
2023-05-05T03:45:38.989Z,8.05
2023-05-05T03:48:07.349Z,8.13
2023-05-05T03:50:34.877Z,9.15
2023-05-05T03:53:02.102Z,8.90
2023-05-05T03:55:29.656Z,8.23
2023-05-05T03:57:56.848Z,9.68
2023-05-05T04:00:24.376Z,9.48
2023-05-05T04:02:51.759Z,8.95
2023-05-05T04:05:19.373Z,8.68
2023-05-05T04:07:46.608Z,9.13
2023-05-05T04:10:14.259Z,8.93
2023-05-05T04:12:49.489Z,8.70
2023-05-05T04:15:17.407Z,8.70
2023-05-05T04:17:45.027Z,9.82
2023-05-05T04:20:12.692Z,8.93
2023-05-05T04:22:39.956Z,8.60
2023-05-05T04:25:07.740Z,8.98
2023-05-05T04:27:35.209Z,8.45
2023-05-05T04:30:02.890Z,9.30
2023-05-05T04:32:32.480Z,8.40
2023-05-05T04:35:05.776Z,7.88
2023-05-05T04:37:33.055Z,8.63
2023-05-05T04:40:00.566Z,8.77
2023-05-05T04:42:27.747Z,8.48
2023-05-05T04:44:55.334Z,9.10
2023-05-05T04:47:22.594Z,9.70
2023-05-05T04:49:50.130Z,8.32
2023-05-05T04:52:17.331Z,8.38
2023-05-05T04:54:44.871Z,8.85
2023-05-05T04:57:12.066Z,8.57
2023-05-05T04:59:39.600Z,9.18
2023-05-05T05:02:06.849Z,8.65
2023-05-05T05:04:34.469Z,8.95
2023-05-05T05:07:01.718Z,8.43
2023-05-05T05:09:29.212Z,8.38
2023-05-05T05:11:59.818Z,8.48
2023-05-05T05:14:27.297Z,8.38
2023-05-05T05:16:54.596Z,8.70
2023-05-05T05:19:22.152Z,8.63
2023-05-05T05:21:49.413Z,8.05
2023-05-05T05:24:16.929Z,8.30
2023-05-05T05:26:44.233Z,9.60
2023-05-05T05:29:11.828Z,8.82
2023-05-05T05:31:39.213Z,9.35
2023-05-05T05:34:06.722Z,9.25
2023-05-05T05:36:33.986Z,8.75
2023-05-05T05:39:01.493Z,10.07
2023-05-05T05:41:28.704Z,8.85
2023-05-05T05:43:56.199Z,10.32
2023-05-05T05:46:23.632Z,8.93
2023-05-05T05:48:51.139Z,9.40
2023-05-05T05:51:18.388Z,9.02
2023-05-05T05:53:45.846Z,9.35
2023-05-05T05:56:13.085Z,10.13
2023-05-05T05:58:40.623Z,9.68
2023-05-05T06:01:07.877Z,10.77
2023-05-05T06:03:35.609Z,9.88
2023-05-05T06:06:02.907Z,9.75
2023-05-05T06:08:30.429Z,9.23
2023-05-05T06:10:57.651Z,10.05
2023-05-05T06:13:28.046Z,9.20
2023-05-05T06:15:55.282Z,9.88
2023-05-05T06:18:22.990Z,9.90
2023-05-05T06:20:50.569Z,9.63
2023-05-05T06:23:18.412Z,10.20
2023-05-05T06:25:45.817Z,9.57
2023-05-05T06:28:13.278Z,10.07
2023-05-05T06:30:40.490Z,9.85
2023-05-05T06:33:09.417Z,9.57
2023-05-05T06:35:36.749Z,9.73
2023-05-05T06:38:04.230Z,9.85
2023-05-05T06:40:31.513Z,9.32
2023-05-05T06:42:59.049Z,9.98
2023-05-05T06:45:26.242Z,9.05
2023-05-05T06:47:53.727Z,10.38
2023-05-05T06:50:21.113Z,9.18
2023-05-05T06:52:48.672Z,9.32
2023-05-05T06:55:15.925Z,8.88
2023-05-05T06:57:43.612Z,8.88
2023-05-05T07:00:11.166Z,8.75
2023-05-05T07:02:38.961Z,9.13
2023-05-05T07:05:06.531Z,9.25
2023-05-05T07:07:34.072Z,8.55
2023-05-05T07:10:01.275Z,8.50
2023-05-05T07:12:29.451Z,8.48
2023-05-05T07:14:56.710Z,9.07
2023-05-05T07:17:32.124Z,8.27
2023-05-05T07:19:59.720Z,8.35
2023-05-05T07:22:27.233Z,8.25
2023-05-05T07:24:54.421Z,8.52
2023-05-05T07:27:21.903Z,8.38
2023-05-05T07:29:54.843Z,8.15
2023-05-05T07:32:22.372Z,8.50
2023-05-05T07:34:49.659Z,8.68
2023-05-05T07:37:17.620Z,6.88
2023-05-05T07:39:44.856Z,7.60
2023-05-05T07:42:12.354Z,7.28
2023-05-05T07:44:39.585Z,8.23
2023-05-05T07:47:07.134Z,7.50
2023-05-05T07:49:34.384Z,7.55
2023-05-05T07:52:01.906Z,7.07
2023-05-05T07:54:29.101Z,7.20
2023-05-05T07:56:56.608Z,6.55
2023-05-05T07:59:23.848Z,6.85
2023-05-05T08:01:52.523Z,6.82
2023-05-05T08:04:21.524Z,5.85
2023-05-05T08:06:49.139Z,6.53
2023-05-05T08:09:16.310Z,6.65
2023-05-05T08:11:43.824Z,5.90
2023-05-05T08:14:11.107Z,6.35
2023-05-05T08:16:38.593Z,6.03
2023-05-05T08:19:14.533Z,6.30
2023-05-05T08:21:48.968Z,5.88
2023-05-05T08:24:16.191Z,4.88
2023-05-05T08:26:43.698Z,4.05
2023-05-05T08:29:10.896Z,4.35
2023-05-05T08:31:38.456Z,4.72
2023-05-05T08:34:06.185Z,4.05
2023-05-05T08:36:33.706Z,4.40
2023-05-05T08:39:00.924Z,4.60
2023-05-05T08:41:28.578Z,4.22
2023-05-05T08:43:55.877Z,3.75
2023-05-05T08:46:23.836Z,3.33
2023-05-05T08:48:52.577Z,3.03
2023-05-05T08:51:20.123Z,2.90
2023-05-05T08:53:57.471Z,2.75
2023-05-05T08:56:26.470Z,2.72
2023-05-05T08:58:54.055Z,2.90
2023-05-05T09:01:21.926Z,3.40
2023-05-05T09:03:50.407Z,2.38
2023-05-05T09:06:20.272Z,2.97
2023-05-05T09:08:47.652Z,2.75
2023-05-05T09:11:15.192Z,2.25
2023-05-05T09:13:42.403Z,2.78
2023-05-05T09:16:10.119Z,2.80
2023-05-05T09:18:37.471Z,2.63
2023-05-05T09:21:23.819Z,2.13
2023-05-05T09:24:08.375Z,2.80
2023-05-05T09:26:37.636Z,2.20
2023-05-05T09:29:05.132Z,3.33
2023-05-05T09:31:33.322Z,2.90
2023-05-05T09:34:00.708Z,2.90
2023-05-05T09:36:40.928Z,2.70
2023-05-05T09:39:08.201Z,2.58
2023-05-05T09:41:39.335Z,2.80
2023-05-05T09:44:06.588Z,2.45
2023-05-05T09:46:34.420Z,3.10
2023-05-05T09:49:11.731Z,2.67
2023-05-05T09:51:39.429Z,3.20
2023-05-05T09:54:06.921Z,2.65
2023-05-05T09:56:38.288Z,2.70
2023-05-05T09:59:08.985Z,2.50
2023-05-05T10:01:36.597Z,2.72
2023-05-05T10:04:03.841Z,3.17
2023-05-05T10:06:40.773Z,2.55
2023-05-05T10:09:07.948Z,2.80
2023-05-05T10:11:35.765Z,2.50
2023-05-05T10:14:04.327Z,2.80
2023-05-05T10:16:32.845Z,2.67
2023-05-05T10:19:02.006Z,2.75
2023-05-05T10:21:32.975Z,2.30
2023-05-05T10:24:16.665Z,3.20
2023-05-05T10:26:45.712Z,2.67
2023-05-05T10:29:27.909Z,2.97
2023-05-05T10:31:57.742Z,2.85
2023-05-05T10:34:30.623Z,2.70
2023-05-05T10:36:58.324Z,2.90
2023-05-05T10:39:26.228Z,2.70
2023-05-05T10:41:53.783Z,2.40
2023-05-05T10:44:21.750Z,2.58
2023-05-05T10:46:49.275Z,2.65
2023-05-05T10:49:24.621Z,2.50
2023-05-05T10:51:52.169Z,2.53
2023-05-05T10:54:25.179Z,2.45
2023-05-05T10:56:53.008Z,2.60
2023-05-05T10:59:38.851Z,2.50
2023-05-05T11:02:25.195Z,2.35
2023-05-05T11:05:10.535Z,2.50
2023-05-05T11:07:38.169Z,2.00
2023-05-05T11:10:07.503Z,2.03
2023-05-05T11:12:53.742Z,2.70
2023-05-05T11:15:23.818Z,2.45
2023-05-05T11:17:51.564Z,2.50
2023-05-05T11:20:39.137Z,2.30
2023-05-05T11:23:06.637Z,2.45
2023-05-05T11:25:37.172Z,2.38
2023-05-05T11:28:05.184Z,2.30
2023-05-05T11:30:32.487Z,2.05
2023-05-05T11:33:18.766Z,2.30
2023-05-05T11:35:55.165Z,2.20
2023-05-05T11:38:41.064Z,2.08
2023-05-05T11:41:11.129Z,2.05
2023-05-05T11:43:39.122Z,2.22
2023-05-05T11:46:15.959Z,2.42
2023-05-05T11:48:44.155Z,2.25
2023-05-05T11:51:14.767Z,2.90
2023-05-05T11:53:48.678Z,2.28
2023-05-05T11:56:16.546Z,2.25
2023-05-05T11:58:44.340Z,2.50
2023-05-05T12:01:11.677Z,2.20
2023-05-05T12:03:39.665Z,2.10
2023-05-05T12:06:07.528Z,2.25
2023-05-05T12:08:35.792Z,2.03
2023-05-05T12:11:03.573Z,2.10
2023-05-05T12:13:31.042Z,2.40
2023-05-05T12:16:18.602Z,2.42
2023-05-05T12:18:46.151Z,2.10
2023-05-05T12:21:16.739Z,2.22
2023-05-05T12:23:44.377Z,2.13
2023-05-05T12:26:40.683Z,2.55
2023-05-05T12:29:08.231Z,2.35
2023-05-05T12:31:41.975Z,1.90
2023-05-05T12:34:10.279Z,1.73
2023-05-05T12:36:38.110Z,1.80
2023-05-05T12:39:05.616Z,2.00
2023-05-05T12:41:33.102Z,2.38
2023-05-05T12:44:01.773Z,2.20
2023-05-05T12:46:29.250Z,2.30
2023-05-05T12:49:01.116Z,2.00
2023-05-05T12:51:28.322Z,1.70
2023-05-05T12:54:02.986Z,2.00
2023-05-05T12:56:37.336Z,2.33
2023-05-05T12:59:06.011Z,2.25
2023-05-05T13:01:33.877Z,1.95
2023-05-05T13:04:08.370Z,2.05
2023-05-05T13:06:35.573Z,2.10
2023-05-05T13:09:03.725Z,7.07
2023-05-05T13:11:34.264Z,2.30
2023-05-05T13:14:01.810Z,2.00
2023-05-05T13:16:29.098Z,2.20
2023-05-05T13:18:56.592Z,2.00
2023-05-05T13:21:23.958Z,2.28
2023-05-05T13:23:51.438Z,2.38
2023-05-05T13:26:18.663Z,1.98
2023-05-05T13:28:46.195Z,2.08
2023-05-05T13:31:13.581Z,2.00
2023-05-05T13:33:41.112Z,2.33
2023-05-05T13:36:08.363Z,2.20
2023-05-05T13:38:35.821Z,2.00
2023-05-05T13:41:04.277Z,2.65
2023-05-05T13:43:31.917Z,2.20
2023-05-05T13:46:08.736Z,2.30
2023-05-05T13:48:43.978Z,2.22
2023-05-05T13:51:11.189Z,2.20
2023-05-05T13:53:38.831Z,2.20
2023-05-05T13:56:06.107Z,2.35
2023-05-05T13:58:33.990Z,2.00
2023-05-05T14:01:02.395Z,2.00
2023-05-05T14:03:30.316Z,2.30
2023-05-05T14:05:57.751Z,2.13
2023-05-05T14:08:25.278Z,1.92
2023-05-05T14:10:52.506Z,2.70
2023-05-05T14:13:20.126Z,1.88
2023-05-05T14:15:47.394Z,2.10
2023-05-05T14:18:15.251Z,2.00
2023-05-05T14:20:42.483Z,2.15
2023-05-05T14:23:09.990Z,2.20
2023-05-05T14:25:37.252Z,2.03
2023-05-05T14:28:04.785Z,1.98
2023-05-05T14:30:32.018Z,1.95
2023-05-05T14:32:59.552Z,2.28
2023-05-05T14:35:26.775Z,1.90
2023-05-05T14:37:54.445Z,1.98
2023-05-05T14:40:21.638Z,1.95
2023-05-05T14:42:49.137Z,2.00
2023-05-05T14:45:22.150Z,2.10
2023-05-05T14:47:49.766Z,2.30
2023-05-05T14:50:16.949Z,2.00
2023-05-05T14:52:44.473Z,2.35
2023-05-05T14:55:11.873Z,1.73
2023-05-05T14:57:39.458Z,1.80
2023-05-05T15:00:06.946Z,2.00
2023-05-05T15:02:34.471Z,1.80
2023-05-05T15:05:01.830Z,1.90
2023-05-05T15:07:29.303Z,1.98
2023-05-05T15:09:56.508Z,2.08
2023-05-05T15:12:42.617Z,1.80
2023-05-05T15:15:10.280Z,1.77
2023-05-05T15:17:37.958Z,1.90
2023-05-05T15:20:06.135Z,2.25
2023-05-05T15:22:33.878Z,2.03
2023-05-05T15:25:01.156Z,2.10
2023-05-05T15:27:28.698Z,2.20
2023-05-05T15:29:55.868Z,1.83
2023-05-05T15:32:23.386Z,1.80
2023-05-05T15:34:50.708Z,1.80
2023-05-05T15:37:18.210Z,1.70
2023-05-05T15:39:45.381Z,1.65
2023-05-05T15:42:12.916Z,1.60
2023-05-05T15:44:40.078Z,2.38
2023-05-05T15:47:07.698Z,1.75
2023-05-05T15:49:35.001Z,1.90
2023-05-05T15:52:02.451Z,1.65
2023-05-05T15:54:29.660Z,1.92
2023-05-05T15:56:57.172Z,1.88
2023-05-05T15:59:24.365Z,2.00
2023-05-05T16:01:51.913Z,1.70
2023-05-05T16:04:19.106Z,1.80
2023-05-05T16:06:46.560Z,1.90
2023-05-05T16:09:13.747Z,1.90
2023-05-05T16:11:41.292Z,2.08
2023-05-05T16:14:08.505Z,1.92
2023-05-05T16:16:36.046Z,1.73
2023-05-05T16:19:03.277Z,1.58
2023-05-05T16:21:32.718Z,2.38
2023-05-05T16:23:59.883Z,2.33
2023-05-05T16:26:27.364Z,1.65
2023-05-05T16:28:54.622Z,1.90
2023-05-05T16:31:22.388Z,2.15
2023-05-05T16:33:49.688Z,1.83
2023-05-05T16:36:17.126Z,1.90
2023-05-05T16:38:44.339Z,2.05
2023-05-05T16:41:11.931Z,2.40
2023-05-05T16:43:39.211Z,1.75
2023-05-05T16:46:06.817Z,1.60
2023-05-05T16:48:34.064Z,1.88
2023-05-05T16:51:01.567Z,2.00
2023-05-05T16:53:28.935Z,1.80
2023-05-05T16:55:56.401Z,1.83
2023-05-05T16:58:23.650Z,1.90
2023-05-05T17:00:51.534Z,2.00
2023-05-05T17:03:19.375Z,1.92
2023-05-05T17:05:49.640Z,2.15
2023-05-05T17:08:17.281Z,2.05
2023-05-05T17:10:45.013Z,2.70
2023-05-05T17:13:13.193Z,1.80
2023-05-05T17:15:41.118Z,2.10
2023-05-05T17:18:08.679Z,2.20
2023-05-05T17:20:36.285Z,2.17
2023-05-05T17:23:03.580Z,2.88
2023-05-05T17:25:31.254Z,3.22
2023-05-05T17:27:58.470Z,2.15
2023-05-05T17:30:25.947Z,2.78
2023-05-05T17:32:53.233Z,2.30
2023-05-05T17:35:20.726Z,3.13
2023-05-05T17:37:47.916Z,3.17
2023-05-05T17:40:15.544Z,3.15
2023-05-05T17:42:42.757Z,2.80
2023-05-05T17:45:10.791Z,1.80
2023-05-05T17:47:38.463Z,1.65
2023-05-05T17:50:06.275Z,1.92
2023-05-05T17:52:33.437Z,2.05
2023-05-05T17:55:00.875Z,1.90
2023-05-05T17:57:29.124Z,2.00
2023-05-05T17:59:56.683Z,2.00
2023-05-05T18:02:25.474Z,2.00
2023-05-05T18:04:53.214Z,2.20
2023-05-05T18:07:20.375Z,1.90
2023-05-05T18:09:47.853Z,2.17
2023-05-05T18:12:15.076Z,2.60
2023-05-05T18:14:42.563Z,3.50
2023-05-05T18:17:09.804Z,2.50
2023-05-05T18:19:37.284Z,2.45
2023-05-05T18:22:04.463Z,2.28
2023-05-05T18:24:31.945Z,2.83
2023-05-05T18:26:59.108Z,3.05
2023-05-05T18:29:26.581Z,3.88
2023-05-05T18:31:53.814Z,3.63
2023-05-05T18:34:21.368Z,3.90
2023-05-05T18:36:50.006Z,4.07
2023-05-05T18:39:17.464Z,3.85
2023-05-05T18:41:46.175Z,4.05
2023-05-05T18:44:13.675Z,4.70
2023-05-05T18:46:40.952Z,4.10
2023-05-05T18:49:08.773Z,4.13
2023-05-05T18:51:36.122Z,3.83
2023-05-05T18:54:03.629Z,4.43
2023-05-05T18:56:30.818Z,4.03
2023-05-05T18:58:58.404Z,3.65
2023-05-05T19:01:25.786Z,3.92
2023-05-05T19:03:53.460Z,3.75
2023-05-05T19:06:20.666Z,3.83
2023-05-05T19:08:48.109Z,3.70
2023-05-05T19:11:15.408Z,4.05
2023-05-05T19:13:43.010Z,3.58
2023-05-05T19:16:10.246Z,3.78
2023-05-05T19:18:38.089Z,4.38
2023-05-05T19:21:05.503Z,3.50
2023-05-05T19:23:32.990Z,4.95
2023-05-05T19:26:00.224Z,4.22
2023-05-05T19:28:27.700Z,4.18
2023-05-05T19:30:55.025Z,3.92
2023-05-05T19:33:22.665Z,3.80
2023-05-05T19:35:50.012Z,3.50
2023-05-05T19:38:17.496Z,3.45
2023-05-05T19:40:44.706Z,3.60
2023-05-05T19:43:12.176Z,3.70
2023-05-05T19:45:39.650Z,4.22
2023-05-05T19:48:07.187Z,3.47
2023-05-05T19:50:34.566Z,3.78
2023-05-05T19:53:02.876Z,3.78
2023-05-05T19:55:30.143Z,3.97
2023-05-05T19:57:57.637Z,4.22
2023-05-05T20:00:24.875Z,3.65
2023-05-05T20:02:52.516Z,3.35
2023-05-05T20:05:19.787Z,3.95
2023-05-05T20:07:47.302Z,3.85
2023-05-05T20:10:14.533Z,3.55
2023-05-05T20:12:42.343Z,4.40
2023-05-05T20:15:10.282Z,3.47
2023-05-05T20:17:37.844Z,4.10
2023-05-05T20:20:05.507Z,3.55
2023-05-05T20:22:33.029Z,3.85
2023-05-05T20:25:00.198Z,4.13
2023-05-05T20:27:28.749Z,3.83
2023-05-05T20:29:56.014Z,3.63
2023-05-05T20:32:23.692Z,3.63
2023-05-05T20:34:50.879Z,4.10
2023-05-05T20:37:18.365Z,3.15
2023-05-05T20:39:45.635Z,3.72
2023-05-05T20:42:13.142Z,3.55
2023-05-05T20:44:40.381Z,3.90
2023-05-05T20:47:07.976Z,3.88
2023-05-05T20:49:35.194Z,3.85
2023-05-05T20:52:02.865Z,3.85
2023-05-05T20:54:31.478Z,3.70
2023-05-05T20:56:59.060Z,4.00
2023-05-05T20:59:26.205Z,3.78
2023-05-05T21:01:54.237Z,3.85
2023-05-05T21:04:21.552Z,3.55
2023-05-05T21:06:49.022Z,4.35
2023-05-05T21:09:16.183Z,3.85
2023-05-05T21:11:43.675Z,3.90
2023-05-05T21:14:10.875Z,4.20
2023-05-05T21:16:38.362Z,3.97
2023-05-05T21:19:05.688Z,4.63
2023-05-05T21:21:33.211Z,4.35
2023-05-05T21:24:00.535Z,4.43
2023-05-05T21:26:30.128Z,3.85
2023-05-05T21:28:57.311Z,4.30
2023-05-05T21:31:26.949Z,4.05
2023-05-05T21:33:54.211Z,3.97
2023-05-05T21:36:21.812Z,4.22
2023-05-05T21:38:50.400Z,5.63
2023-05-05T21:41:17.856Z,4.50
2023-05-05T21:43:45.020Z,4.80
2023-05-05T21:46:12.655Z,4.72
2023-05-05T21:48:39.889Z,4.60
2023-05-05T21:51:08.540Z,4.63
2023-05-05T21:53:35.788Z,4.68
2023-05-05T21:56:04.523Z,4.28
2023-05-05T21:58:31.711Z,3.50
2023-05-05T22:00:59.184Z,4.40
2023-05-05T22:03:26.657Z,3.85
2023-05-05T22:05:54.179Z,4.45
2023-05-05T22:08:21.437Z,4.25
2023-05-05T22:10:48.928Z,4.35
2023-05-05T22:13:16.227Z,4.55
2023-05-05T22:15:47.276Z,4.57
2023-05-05T22:18:22.429Z,4.53
2023-05-05T22:20:50.042Z,4.43
2023-05-05T22:23:17.293Z,4.28
2023-05-05T22:25:44.771Z,4.60
2023-05-05T22:28:12.072Z,4.00
2023-05-05T22:30:42.335Z,4.45
2023-05-05T22:33:09.644Z,3.50
2023-05-05T22:35:37.316Z,3.65
2023-05-05T22:38:04.574Z,4.20
2023-05-05T22:40:32.127Z,4.05
2023-05-05T22:42:59.446Z,3.83
2023-05-05T22:45:26.981Z,4.03
2023-05-05T22:47:54.261Z,3.92
2023-05-05T22:50:21.797Z,4.80
2023-05-05T22:52:48.995Z,4.45
2023-05-05T22:55:16.476Z,4.35
2023-05-05T22:57:43.872Z,4.55
2023-05-05T23:00:11.894Z,4.53
2023-05-05T23:02:39.761Z,3.97
2023-05-05T23:05:07.681Z,4.05
2023-05-05T23:07:35.378Z,3.83
2023-05-05T23:10:03.411Z,4.32
2023-05-05T23:12:30.724Z,4.45
2023-05-05T23:14:58.248Z,3.90
2023-05-05T23:17:25.560Z,4.18
2023-05-05T23:19:53.066Z,4.20
2023-05-05T23:22:20.239Z,4.10
2023-05-05T23:24:47.720Z,3.85
2023-05-05T23:27:14.911Z,3.95
2023-05-05T23:29:42.417Z,3.75
2023-05-05T23:32:09.639Z,4.20
2023-05-05T23:34:37.079Z,3.88
2023-05-05T23:37:06.194Z,4.40
2023-05-05T23:39:33.938Z,3.67
2023-05-05T23:42:01.175Z,4.00
2023-05-05T23:44:28.593Z,4.00
2023-05-05T23:46:55.788Z,4.60
2023-05-05T23:49:23.254Z,3.83
2023-05-05T23:51:50.422Z,4.38
2023-05-05T23:54:17.961Z,4.10
2023-05-05T23:56:45.608Z,4.20
2023-05-05T23:59:13.242Z,3.83
